map of PPT home
PPT - Airport
Location
City:  Papeete, Tahiti, Society Islands, French Polynesia
Name:Faa'a
ICAO:NTAA
IATA:PPT

Details
Type:Airport (Aerodrome, Airfield)
Latitude:1733'24"S (-17.556666)
Longitude:14936'41"W (-149.611388)
Elevation:7 ft (2 m)
Variation:12.88E (WMM2015 magnetic declination)
0.00 annual change
Runways:1
Longest:11220 × 148 ft (3420 × 45 m), paved

Time
Time Zone:UTC-10
Local Time:

Weather
METAR:NTAA 180430Z VRB02KT 9999 FEW020 SCT050 BKN100 27/21 Q1012 NOSIG
TAF:NTAA 171100Z 1712/1818 VRB03KT 9999 FEW023 SCT050= TAF RJAA 171106Z 1712/1818 36004KT 9999 FEW020 SCT040
BECMG 1803/1806 4000 -RA BR FEW004 BKN007
TEMPO 1806/1809 3000 RA BR FEW002 BKN003
TEMPO 1809/1812 2500 BR FEW002 BKN004
BECMG 1812/1815 9999 NSW FEW030

Related Locations
Nearby:
Farthest:EDB: 12388 mi / 19937 km
El Debba (Al Dabbah), NO, SD

Find:

   beyond  
but within

Other Information
Maps:
NOTAMs:
Links:
Sources:

  
flag of French Polynesia
flag of Society Islands
  

Sectional Chart

Flight Planning
at skyvector.com

Satellite Image

Google Maps Satellite view

 

Copyright © 2004-2017 Karl L. Swartz. All rights reserved.
The Great Circle Mapper name and logo are trademarks of the Great Circle Mapper.
All other trademarks mentioned herein belong to their respective owners.
Please see credits for attibutions and further copyright information.

  Follow gcmap on Facebook Follow gcmap on Twitter Follow gcmap on Google+ GCmap on LinkedIn

hCard Microformat

Geo Microformat